Franklin Park, IL

1:58 AM CST en Diciembre 20, 2014 (GMT -0600)
Chicago-Midway | Change Station
CLOSE
Current Station
Aeropuerto
Location: Chicago Midway,
Altura: 623 ft
Estaciones meteorológicas cercanas

Alt 623 ft 41.78 °N, 87.76 °W | Updated 5 minutes ago

Nublado
Nublado
32 ° F
Sensación térmica 26 ° F
N
6
Viento Variable Viento desde SO

Hoy
Alta -- | Baja -- ° F
--% Posibilidad de precipitaciones
Ayer
Alta -- | Baja -- ° F
Precip. -- pul
7:15 AM 4:22 PM
Creciente menguante, 4% visible
Presión 30.32 pul
Visibilidad 8.0 Millas
Nubes Nublado 2900 ft
Vientos helados 26 ° F
Punto de rocío 25 ° F
Humedad 75%
Precipitaciones 0.00 pul
Espesor de la nieve No disponible.
UV 0 de una escala de 12
Polen .10 de una escala de 12
Calidad del aire No disponible.
Flu Activity No disponible.
METAR KMDW 200753Z 22005KT 8SM OVC029 00/M04 A3028 RMK AO2 SLP265 T00001039

More Conditions Fewer Conditions

Presión 30.32 pul
Visibilidad 8.0 Millas
Nubes Nublado 2900 ft
Vientos helados 26 ° F
Punto de rocío 25 ° F
Humedad 75%
Precipitaciones 0.00 pul
Espesor de la nieve No disponible.
UV 0 de una escala de 12
Polen .10 de una escala de 12
Calidad del aire No disponible.
Flu Activity No disponible.
METAR KMDW 200753Z 22005KT 8SM OVC029 00/M04 A3028 RMK AO2 SLP265 T00001039

More Conditions Fewer Conditions

10-Day Weather Forecast

Almanac

Astronomía

Dec. 20, 2014 Salida Puesta
Hora real
Crepúsculo civil
Crepúsculo náutico
Crepúsculo astronómico
Luna
Horas de luz
Horas de luz
Tomorrow will be .
, % of the Moon is Illuminated

Extremos de hoy

Máximos del estado Bajos del estado

Community

WunderPhotos

Upload Photos

1,779,146 ¡fotos cargadas!

WunderBlogs® & News

Nearby

Calidad del aire

  Calidad del aire Índice AQ Contaminante
Not available.

Grosos de nieve

Estación Profundido Altura

Actividad de terremotos

Ciudad Distance Mag. Tiempo y dato
Magnitud mínima muestra es 2,5.

Temperaturas de aguas costeras

Lugar Temperatura

Estaciones meteorológicas cercanas